createdAt,value
2023-01-21T00:00:45.538Z,10.80
2023-01-21T00:03:13.031Z,10.23
2023-01-21T00:05:39.971Z,10.40
2023-01-21T00:08:06.940Z,10.53
2023-01-21T00:10:34.366Z,10.57
2023-01-21T00:13:01.469Z,11.10
2023-01-21T00:15:28.797Z,10.20
2023-01-21T00:17:55.773Z,11.33
2023-01-21T00:20:22.708Z,10.80
2023-01-21T00:22:49.614Z,12.93
2023-01-21T00:25:16.577Z,12.93
2023-01-21T00:27:43.508Z,12.90
2023-01-21T00:30:11.189Z,13.17
2023-01-21T00:32:38.134Z,11.90
2023-01-21T00:35:06.914Z,10.40
2023-01-21T00:37:33.844Z,11.57
2023-01-21T00:40:01.060Z,11.90
2023-01-21T00:42:28.675Z,10.43
2023-01-21T00:44:57.390Z,12.93
2023-01-21T00:47:24.763Z,10.67
2023-01-21T00:49:51.678Z,11.60
2023-01-21T00:52:18.597Z,10.87
2023-01-21T00:54:45.516Z,11.60
2023-01-21T00:57:13.796Z,11.40
2023-01-21T00:59:40.931Z,12.07
2023-01-21T01:02:08.921Z,11.70
2023-01-21T01:04:36.365Z,11.23
2023-01-21T01:07:03.689Z,12.10
2023-01-21T01:09:30.920Z,12.23
2023-01-21T01:11:57.866Z,12.60
2023-01-21T01:14:24.866Z,13.30
2023-01-21T01:16:51.777Z,11.30
2023-01-21T01:19:18.660Z,11.87
2023-01-21T01:21:46.216Z,11.90
2023-01-21T01:24:13.137Z,11.13
2023-01-21T01:26:42.294Z,11.77
2023-01-21T01:29:13.200Z,10.97
2023-01-21T01:31:40.300Z,12.10
2023-01-21T01:34:07.349Z,12.43
2023-01-21T01:36:34.231Z,13.50
2023-01-21T01:39:01.514Z,11.20
2023-01-21T01:41:30.099Z,11.30
2023-01-21T01:44:06.693Z,12.33
2023-01-21T01:46:36.435Z,12.33
2023-01-21T01:49:13.711Z,11.30
2023-01-21T01:51:47.330Z,11.20
2023-01-21T01:54:19.802Z,11.30
2023-01-21T01:56:50.637Z,10.23
2023-01-21T01:59:18.137Z,10.40
2023-01-21T02:01:45.129Z,11.57
2023-01-21T02:04:20.117Z,11.13
2023-01-21T02:06:49.086Z,13.20
2023-01-21T02:09:16.027Z,12.57
2023-01-21T02:11:42.952Z,10.90
2023-01-21T02:14:09.959Z,11.10
2023-01-21T02:16:57.678Z,11.50
2023-01-21T02:20:11.749Z,13.47
2023-01-21T02:23:01.631Z,13.37
2023-01-21T02:25:48.898Z,11.87
2023-01-21T02:28:52.650Z,11.77
2023-01-21T02:31:58.209Z,10.73
2023-01-21T02:34:51.996Z,12.23
2023-01-21T02:37:47.208Z,13.20
2023-01-21T02:40:42.171Z,10.70
2023-01-21T02:43:18.752Z,13.10
2023-01-21T02:46:18.791Z,11.80
2023-01-21T02:49:00.767Z,11.43
2023-01-21T02:51:27.662Z,10.83
2023-01-21T02:53:54.555Z,11.23
2023-01-21T02:56:27.099Z,11.80
2023-01-21T02:59:02.066Z,11.43
2023-01-21T03:01:40.791Z,10.27
2023-01-21T03:04:37.671Z,10.40
2023-01-21T03:07:14.490Z,10.80
2023-01-21T03:09:41.683Z,11.67
2023-01-21T03:12:56.350Z,10.10
2023-01-21T03:16:07.085Z,10.70
2023-01-21T03:18:43.649Z,10.00
2023-01-21T03:21:18.553Z,11.83
2023-01-21T03:23:49.662Z,11.20
2023-01-21T03:26:22.612Z,10.13
2023-01-21T03:28:54.044Z,10.70
2023-01-21T03:31:33.770Z,9.60
2023-01-21T03:34:04.708Z,11.50
2023-01-21T03:37:02.689Z,11.60
2023-01-21T03:39:37.735Z,10.13
2023-01-21T03:42:04.916Z,12.10
2023-01-21T03:44:32.113Z,13.23
2023-01-21T03:47:28.714Z,11.70
2023-01-21T03:50:20.494Z,12.37
2023-01-21T03:52:47.517Z,13.30
2023-01-21T03:55:16.964Z,11.73
2023-01-21T03:57:43.892Z,12.43
2023-01-21T04:00:11.639Z,13.20
2023-01-21T04:02:39.186Z,11.50
2023-01-21T04:05:06.466Z,10.40
2023-01-21T04:07:33.360Z,12.17
2023-01-21T04:10:00.275Z,12.20
2023-01-21T04:12:27.166Z,12.17
2023-01-21T04:14:54.083Z,13.03
2023-01-21T04:17:20.999Z,11.97
2023-01-21T04:19:47.910Z,12.13
2023-01-21T04:22:14.863Z,11.70
2023-01-21T04:24:41.770Z,14.43
2023-01-21T04:27:08.694Z,13.70
2023-01-21T04:29:35.560Z,12.87
2023-01-21T04:32:02.563Z,14.20
2023-01-21T04:34:29.461Z,12.20
2023-01-21T04:36:56.322Z,14.43
2023-01-21T04:39:23.179Z,14.10
2023-01-21T04:41:50.066Z,14.53
2023-01-21T04:44:16.934Z,13.23
2023-01-21T04:46:43.835Z,13.70
2023-01-21T04:49:10.736Z,14.57
2023-01-21T04:51:37.620Z,14.10
2023-01-21T04:54:04.581Z,12.60
2023-01-21T04:56:31.479Z,15.50
2023-01-21T04:58:58.377Z,13.97
2023-01-21T05:01:25.310Z,15.07
2023-01-21T05:03:52.278Z,14.10
2023-01-21T05:06:19.192Z,15.37
2023-01-21T05:08:46.092Z,16.10
2023-01-21T05:11:18.193Z,15.20
2023-01-21T05:13:45.156Z,16.70
2023-01-21T05:16:12.032Z,13.93
2023-01-21T05:18:39.113Z,16.00
2023-01-21T05:21:06.844Z,15.37
2023-01-21T05:23:34.068Z,16.30
2023-01-21T05:26:00.948Z,15.93
2023-01-21T05:28:27.856Z,14.37
2023-01-21T05:30:54.942Z,16.13
2023-01-21T05:33:26.212Z,15.37
2023-01-21T05:35:53.226Z,16.43
2023-01-21T05:38:20.176Z,16.70
2023-01-21T05:40:47.092Z,18.43
2023-01-21T05:43:14.017Z,16.63
2023-01-21T05:45:40.895Z,16.43
2023-01-21T05:48:07.776Z,15.70
2023-01-21T05:50:34.670Z,16.93
2023-01-21T05:53:01.584Z,15.20
2023-01-21T05:55:28.471Z,16.10
2023-01-21T05:57:55.406Z,17.43
2023-01-21T06:00:22.482Z,17.73
2023-01-21T06:02:49.385Z,18.47
2023-01-21T06:05:16.434Z,16.20
2023-01-21T06:07:43.342Z,16.30
2023-01-21T06:10:10.843Z,15.40
2023-01-21T06:12:37.747Z,17.47
2023-01-21T06:15:05.088Z,17.00
2023-01-21T06:17:32.000Z,17.83
2023-01-21T06:19:58.897Z,16.70
2023-01-21T06:22:25.804Z,18.30
2023-01-21T06:24:52.696Z,15.77
2023-01-21T06:27:19.599Z,16.40
2023-01-21T06:29:46.472Z,16.67
2023-01-21T06:32:13.381Z,17.90
2023-01-21T06:34:40.319Z,15.93
2023-01-21T06:37:07.359Z,16.17
2023-01-21T06:39:34.278Z,14.97
2023-01-21T06:42:01.266Z,16.63
2023-01-21T06:44:28.239Z,16.37
2023-01-21T06:47:02.366Z,15.93
2023-01-21T06:49:29.420Z,16.57
2023-01-21T06:51:56.457Z,15.43
2023-01-21T06:54:23.376Z,14.20
2023-01-21T06:56:50.330Z,15.90
2023-01-21T06:59:17.186Z,14.80
2023-01-21T07:01:44.289Z,15.20
2023-01-21T07:04:11.229Z,16.20
2023-01-21T07:06:38.336Z,14.70
2023-01-21T07:09:06.704Z,15.37
2023-01-21T07:11:34.443Z,16.27
2023-01-21T07:14:01.344Z,14.67
2023-01-21T07:16:28.330Z,15.60
2023-01-21T07:18:55.275Z,17.83
2023-01-21T07:21:24.450Z,16.60
2023-01-21T07:23:53.297Z,16.47
2023-01-21T07:26:20.447Z,18.67
2023-01-21T07:28:47.541Z,15.97
2023-01-21T07:31:14.609Z,17.40
2023-01-21T07:33:41.565Z,17.27
2023-01-21T07:36:08.806Z,19.77
2023-01-21T07:38:35.755Z,21.60
2023-01-21T07:41:02.647Z,20.80
2023-01-21T07:43:29.621Z,19.40
2023-01-21T07:45:58.581Z,17.47
2023-01-21T07:48:26.885Z,18.60
2023-01-21T07:50:58.505Z,17.23
2023-01-21T07:53:26.285Z,16.50
2023-01-21T07:55:53.453Z,15.47
2023-01-21T07:58:20.385Z,15.00
2023-01-21T08:00:47.260Z,16.67
2023-01-21T08:03:14.180Z,16.53
2023-01-21T08:05:41.063Z,17.43
2023-01-21T08:08:07.968Z,14.80
2023-01-21T08:10:34.854Z,16.00
2023-01-21T08:13:02.093Z,17.13
2023-01-21T08:15:29.040Z,16.20
2023-01-21T08:17:56.781Z,15.00
2023-01-21T08:20:23.920Z,15.60
2023-01-21T08:22:51.179Z,12.97
2023-01-21T08:25:18.569Z,16.53
2023-01-21T08:27:45.550Z,14.83
2023-01-21T08:30:12.864Z,14.03
2023-01-21T08:32:39.767Z,14.23
2023-01-21T08:35:07.557Z,15.40
2023-01-21T08:37:34.531Z,15.93
2023-01-21T08:40:01.518Z,15.47
2023-01-21T08:42:28.998Z,13.50
2023-01-21T08:44:55.865Z,16.57
2023-01-21T08:47:22.827Z,14.33
2023-01-21T08:49:49.873Z,13.87
2023-01-21T08:52:21.519Z,14.60
2023-01-21T08:54:50.595Z,13.30
2023-01-21T08:57:17.705Z,13.50
2023-01-21T08:59:44.626Z,13.57
2023-01-21T09:02:12.180Z,12.97
2023-01-21T09:04:39.117Z,12.23
2023-01-21T09:07:06.615Z,12.87
2023-01-21T09:09:33.602Z,12.87
2023-01-21T09:12:00.544Z,13.10
2023-01-21T09:14:27.789Z,13.63
2023-01-21T09:16:55.896Z,11.90
2023-01-21T09:19:23.959Z,11.63
2023-01-21T09:21:52.518Z,11.80
2023-01-21T09:24:19.422Z,10.40
2023-01-21T09:26:46.317Z,10.83
2023-01-21T09:29:13.402Z,12.00
2023-01-21T09:31:40.423Z,11.23
2023-01-21T09:34:08.140Z,10.17
2023-01-21T09:36:35.698Z,11.47
2023-01-21T09:39:02.885Z,10.00
2023-01-21T09:41:42.695Z,11.07
2023-01-21T09:44:43.745Z,10.50
2023-01-21T09:47:38.932Z,9.00
2023-01-21T09:50:22.546Z,10.10
2023-01-21T09:52:52.221Z,8.53
2023-01-21T09:55:42.168Z,8.63
2023-01-21T09:58:40.144Z,8.83
2023-01-21T10:01:26.687Z,11.03
2023-01-21T10:04:14.081Z,7.80
2023-01-21T10:06:48.996Z,9.07
2023-01-21T10:09:35.232Z,7.80
2023-01-21T10:12:14.882Z,8.93
2023-01-21T10:15:27.661Z,8.37
2023-01-21T10:18:02.128Z,6.97
2023-01-21T10:20:34.151Z,8.13
2023-01-21T10:23:04.994Z,8.00
2023-01-21T10:25:34.060Z,8.70
2023-01-21T10:28:28.368Z,8.00
2023-01-21T10:31:26.551Z,8.23
2023-01-21T10:33:53.937Z,8.17
2023-01-21T10:37:04.590Z,8.30
2023-01-21T10:39:47.369Z,8.50
2023-01-21T10:42:26.623Z,7.33
2023-01-21T10:45:13.610Z,7.40
2023-01-21T10:47:56.785Z,7.20
2023-01-21T10:50:45.820Z,8.47
2023-01-21T10:54:01.778Z,8.00
2023-01-21T10:56:55.815Z,9.60
2023-01-21T10:59:27.595Z,8.10
2023-01-21T11:02:09.916Z,7.77
2023-01-21T11:04:40.007Z,7.97
2023-01-21T11:07:14.262Z,8.00
2023-01-21T11:09:46.539Z,8.63
2023-01-21T11:12:17.980Z,9.20
2023-01-21T11:14:59.285Z,7.93
2023-01-21T11:17:41.755Z,8.80
2023-01-21T11:20:39.192Z,8.80
2023-01-21T11:23:07.399Z,8.70
2023-01-21T11:25:41.050Z,8.87
2023-01-21T11:28:26.493Z,8.30
2023-01-21T11:31:12.030Z,8.97
2023-01-21T11:33:40.711Z,9.10
2023-01-21T11:36:20.093Z,9.13
2023-01-21T11:39:00.590Z,9.63
2023-01-21T11:41:28.417Z,9.60
2023-01-21T11:44:18.693Z,8.70
2023-01-21T11:46:45.748Z,9.60
2023-01-21T11:49:15.579Z,8.87
2023-01-21T11:51:45.156Z,9.50
2023-01-21T11:54:23.774Z,9.30
2023-01-21T11:57:02.773Z,8.00
2023-01-21T11:59:36.255Z,8.87
2023-01-21T12:02:10.892Z,8.00
2023-01-21T12:04:43.468Z,7.17
2023-01-21T12:07:20.576Z,6.40
2023-01-21T12:10:13.266Z,7.17
2023-01-21T12:13:20.313Z,6.93
2023-01-21T12:16:18.344Z,5.10
2023-01-21T12:19:07.619Z,5.60
2023-01-21T12:22:03.525Z,5.17
2023-01-21T12:24:59.169Z,4.97
2023-01-21T12:27:45.421Z,5.57
2023-01-21T12:30:53.379Z,5.27
2023-01-21T12:33:29.824Z,4.90
2023-01-21T12:36:04.370Z,4.10
2023-01-21T12:38:41.041Z,4.60
2023-01-21T12:41:18.849Z,4.40
2023-01-21T12:43:55.185Z,3.80
2023-01-21T12:46:28.128Z,4.10
2023-01-21T12:49:12.508Z,5.10
2023-01-21T12:51:44.293Z,4.37
2023-01-21T12:54:29.396Z,4.43
2023-01-21T12:57:25.800Z,5.23
2023-01-21T13:00:12.999Z,4.53
2023-01-21T13:03:32.493Z,4.80
2023-01-21T13:06:15.599Z,4.80
2023-01-21T13:09:03.610Z,4.50
2023-01-21T13:11:37.299Z,5.07
2023-01-21T13:14:10.234Z,5.00
2023-01-21T13:16:48.314Z,4.33
2023-01-21T13:19:16.031Z,5.37
2023-01-21T13:22:03.110Z,5.40
2023-01-21T13:25:00.731Z,5.03
2023-01-21T13:27:49.444Z,5.57
2023-01-21T13:30:29.254Z,5.47
2023-01-21T13:33:20.828Z,5.23
2023-01-21T13:36:12.800Z,4.97
2023-01-21T13:38:55.336Z,5.40
2023-01-21T13:41:58.873Z,5.07
2023-01-21T13:44:44.185Z,4.87
2023-01-21T13:47:29.842Z,4.73
2023-01-21T13:50:24.702Z,4.20
2023-01-21T13:53:22.396Z,4.23
2023-01-21T13:56:22.481Z,4.93
2023-01-21T13:59:08.174Z,5.00
2023-01-21T14:01:54.401Z,5.03
2023-01-21T14:04:51.626Z,4.67
2023-01-21T14:07:35.127Z,4.80
2023-01-21T14:10:25.651Z,4.03
2023-01-21T14:13:42.749Z,4.27
2023-01-21T14:16:52.872Z,5.30
2023-01-21T14:19:48.993Z,4.37
2023-01-21T14:22:50.739Z,4.03
2023-01-21T14:25:41.644Z,4.83
2023-01-21T14:28:50.044Z,3.70
2023-01-21T14:31:39.282Z,4.43
2023-01-21T14:34:23.524Z,4.53
2023-01-21T14:37:08.794Z,4.47
2023-01-21T14:40:39.009Z,4.90
2023-01-21T14:43:05.935Z,4.30
2023-01-21T14:45:56.497Z,3.83
2023-01-21T14:48:34.412Z,4.03
2023-01-21T14:51:13.089Z,5.33
2023-01-21T14:54:02.270Z,4.00
2023-01-21T14:56:34.474Z,4.80
2023-01-21T14:59:35.119Z,4.20
2023-01-21T15:02:31.636Z,5.40
2023-01-21T15:05:03.526Z,4.50
2023-01-21T15:07:38.165Z,4.03
2023-01-21T15:10:26.777Z,4.43
2023-01-21T15:13:02.656Z,4.37
2023-01-21T15:15:41.698Z,5.30
2023-01-21T15:18:35.500Z,4.43
2023-01-21T15:21:43.228Z,4.73
2023-01-21T15:24:28.181Z,4.70
2023-01-21T15:27:28.388Z,4.27
2023-01-21T15:29:55.187Z,4.50
2023-01-21T15:32:45.015Z,4.83
2023-01-21T15:35:23.761Z,5.30
2023-01-21T15:38:07.987Z,4.77
2023-01-21T15:41:01.927Z,4.80
2023-01-21T15:43:45.458Z,4.40
2023-01-21T15:46:38.723Z,4.27
2023-01-21T15:49:26.011Z,4.37
2023-01-21T15:52:21.297Z,4.80
2023-01-21T15:55:36.152Z,4.40
2023-01-21T15:58:36.315Z,4.57
2023-01-21T16:01:17.295Z,4.33
2023-01-21T16:04:14.992Z,5.40
2023-01-21T16:07:28.973Z,4.67
2023-01-21T16:10:20.314Z,5.33
2023-01-21T16:13:13.372Z,4.40
2023-01-21T16:16:10.271Z,5.03
2023-01-21T16:19:10.881Z,4.40
2023-01-21T16:21:41.508Z,4.77
2023-01-21T16:24:17.688Z,4.63
2023-01-21T16:26:44.943Z,5.40
2023-01-21T16:29:13.879Z,5.07
2023-01-21T16:31:50.773Z,6.07
2023-01-21T16:34:44.153Z,4.30
2023-01-21T16:37:15.101Z,5.73
2023-01-21T16:39:42.894Z,5.73
2023-01-21T16:42:36.826Z,5.10
2023-01-21T16:45:20.335Z,5.23
2023-01-21T16:47:56.944Z,5.60
2023-01-21T16:50:27.210Z,5.50
2023-01-21T16:52:56.567Z,5.07
2023-01-21T16:55:27.731Z,4.70
2023-01-21T16:57:59.739Z,4.80
2023-01-21T17:00:30.923Z,4.57
2023-01-21T17:02:59.311Z,4.37
2023-01-21T17:05:31.462Z,5.43
2023-01-21T17:08:03.582Z,4.90
2023-01-21T17:10:56.503Z,6.10
2023-01-21T17:13:23.626Z,4.87
2023-01-21T17:16:00.805Z,5.67
2023-01-21T17:18:35.348Z,5.10
2023-01-21T17:21:16.207Z,5.50
2023-01-21T17:23:42.976Z,4.90
2023-01-21T17:26:31.728Z,5.67
2023-01-21T17:29:09.983Z,5.50
2023-01-21T17:31:41.314Z,5.77
2023-01-21T17:34:10.963Z,5.63
2023-01-21T17:36:39.716Z,4.63
2023-01-21T17:39:09.138Z,4.60
2023-01-21T17:41:41.007Z,4.97
2023-01-21T17:44:29.033Z,5.30
2023-01-21T17:46:55.999Z,6.03
2023-01-21T17:49:25.038Z,5.93
2023-01-21T17:51:54.587Z,5.23
2023-01-21T17:54:25.920Z,4.57
2023-01-21T17:56:57.956Z,4.87
2023-01-21T17:59:37.887Z,5.10
2023-01-21T18:02:17.504Z,4.57
2023-01-21T18:04:45.013Z,4.20
2023-01-21T18:07:27.473Z,4.90
2023-01-21T18:09:55.336Z,4.37
2023-01-21T18:12:22.264Z,5.40
2023-01-21T18:14:49.204Z,5.07
2023-01-21T18:17:22.627Z,5.20
2023-01-21T18:19:49.640Z,5.10
2023-01-21T18:22:29.439Z,4.63
2023-01-21T18:24:56.405Z,5.23
2023-01-21T18:27:26.182Z,5.13
2023-01-21T18:29:53.600Z,4.63
2023-01-21T18:32:20.575Z,5.23
2023-01-21T18:34:47.460Z,5.10
2023-01-21T18:37:17.820Z,5.43
2023-01-21T18:39:44.942Z,4.90
2023-01-21T18:42:17.350Z,4.60
2023-01-21T18:44:45.091Z,5.13
2023-01-21T18:47:15.768Z,3.70
2023-01-21T18:49:43.298Z,4.63
2023-01-21T18:52:19.160Z,4.47
2023-01-21T18:54:46.262Z,4.50
2023-01-21T18:57:17.221Z,5.53
2023-01-21T18:59:44.118Z,4.57
2023-01-21T19:02:18.071Z,5.47
2023-01-21T19:04:46.541Z,5.60
2023-01-21T19:07:15.259Z,4.67
2023-01-21T19:09:46.010Z,4.80
2023-01-21T19:12:14.886Z,4.20
2023-01-21T19:14:41.919Z,4.43
2023-01-21T19:17:28.860Z,4.17
2023-01-21T19:19:56.664Z,4.50
2023-01-21T19:22:23.716Z,3.97
2023-01-21T19:24:50.817Z,3.57
2023-01-21T19:27:28.683Z,3.73
2023-01-21T19:29:55.586Z,5.20
2023-01-21T19:32:22.531Z,4.67
2023-01-21T19:34:49.409Z,4.43
2023-01-21T19:37:20.552Z,5.17
2023-01-21T19:39:47.424Z,4.40
2023-01-21T19:42:16.157Z,4.50
2023-01-21T19:44:43.069Z,5.53
2023-01-21T19:47:27.008Z,4.27
2023-01-21T19:49:53.924Z,5.10
2023-01-21T19:52:20.818Z,4.87
2023-01-21T19:54:47.719Z,3.90
2023-01-21T19:57:17.813Z,4.60
2023-01-21T19:59:45.351Z,4.03
2023-01-21T20:02:13.192Z,4.93
2023-01-21T20:04:40.075Z,3.87
2023-01-21T20:07:07.248Z,4.23
2023-01-21T20:09:34.158Z,4.87
2023-01-21T20:12:03.406Z,4.20
2023-01-21T20:14:33.191Z,4.33
2023-01-21T20:17:00.111Z,3.23
2023-01-21T20:19:27.719Z,4.57
2023-01-21T20:22:01.724Z,3.80
2023-01-21T20:24:34.138Z,3.07
2023-01-21T20:27:04.177Z,4.00
2023-01-21T20:29:31.541Z,3.70
2023-01-21T20:31:58.527Z,4.03
2023-01-21T20:34:27.597Z,4.20
2023-01-21T20:36:55.689Z,3.87
2023-01-21T20:39:22.596Z,3.80
2023-01-21T20:41:49.486Z,4.60
2023-01-21T20:44:16.716Z,3.47
2023-01-21T20:46:45.452Z,3.70
2023-01-21T20:49:12.485Z,3.93
2023-01-21T20:51:39.410Z,3.50
2023-01-21T20:54:06.309Z,4.50
2023-01-21T20:56:33.320Z,4.40
2023-01-21T20:59:00.257Z,3.80
2023-01-21T21:01:28.588Z,3.70
2023-01-21T21:03:55.492Z,3.23
2023-01-21T21:06:26.616Z,4.23
2023-01-21T21:08:53.724Z,3.50
2023-01-21T21:11:20.714Z,3.80
2023-01-21T21:13:51.605Z,4.97
2023-01-21T21:16:22.835Z,4.40
2023-01-21T21:18:50.287Z,3.77
2023-01-21T21:21:23.371Z,4.57
2023-01-21T21:23:51.571Z,3.07
2023-01-21T21:26:29.371Z,3.70
2023-01-21T21:28:57.599Z,3.70
2023-01-21T21:31:26.218Z,3.20
2023-01-21T21:33:53.293Z,3.37
2023-01-21T21:36:23.339Z,3.80
2023-01-21T21:38:52.201Z,3.10
2023-01-21T21:41:43.565Z,3.93
2023-01-21T21:44:11.319Z,4.10
2023-01-21T21:46:57.590Z,3.40
2023-01-21T21:49:24.760Z,3.93
2023-01-21T21:51:51.809Z,4.63
2023-01-21T21:54:19.027Z,3.67
2023-01-21T21:56:47.029Z,3.87
2023-01-21T21:59:14.562Z,3.73
2023-01-21T22:01:42.819Z,3.63
2023-01-21T22:04:10.074Z,3.67
2023-01-21T22:06:37.068Z,3.53
2023-01-21T22:09:04.415Z,3.47
2023-01-21T22:11:31.570Z,3.30
2023-01-21T22:13:58.959Z,2.60
2023-01-21T22:16:28.795Z,3.83
2023-01-21T22:18:58.071Z,3.90
2023-01-21T22:21:34.017Z,3.47
2023-01-21T22:24:03.516Z,3.47
2023-01-21T22:26:30.725Z,2.63
2023-01-21T22:28:57.732Z,2.93
2023-01-21T22:31:28.171Z,3.03
2023-01-21T22:33:56.311Z,3.50
2023-01-21T22:36:27.666Z,2.77
2023-01-21T22:38:55.146Z,3.50
2023-01-21T22:41:24.017Z,4.03
2023-01-21T22:43:51.778Z,3.93
2023-01-21T22:46:25.507Z,4.50
2023-01-21T22:48:53.987Z,2.90
2023-01-21T22:51:23.027Z,3.57
2023-01-21T22:53:51.384Z,3.20
2023-01-21T22:56:25.336Z,3.30
2023-01-21T22:58:59.302Z,4.50
2023-01-21T23:01:31.075Z,4.03
2023-01-21T23:03:59.870Z,3.20
2023-01-21T23:06:27.110Z,3.63
2023-01-21T23:08:54.380Z,3.23
2023-01-21T23:11:21.542Z,3.30
2023-01-21T23:13:53.245Z,3.70
2023-01-21T23:16:21.189Z,3.43
2023-01-21T23:18:48.654Z,3.50
2023-01-21T23:21:19.558Z,3.60
2023-01-21T23:23:46.524Z,3.43
2023-01-21T23:26:14.456Z,3.00
2023-01-21T23:28:41.399Z,3.80
2023-01-21T23:31:14.726Z,3.67
2023-01-21T23:33:42.266Z,3.87
2023-01-21T23:36:12.875Z,4.00
2023-01-21T23:38:41.272Z,3.63
2023-01-21T23:41:13.799Z,2.97
2023-01-21T23:43:41.009Z,3.90
2023-01-21T23:46:13.196Z,3.57
2023-01-21T23:48:40.220Z,2.70
2023-01-21T23:51:12.288Z,3.57
2023-01-21T23:53:39.205Z,3.60
2023-01-21T23:56:10.471Z,3.77
2023-01-21T23:58:37.343Z,2.57
